Terminal Aerodrome Forecast
Issued by NWS

Current Version | Previous Version | Text Only | Print | Product List | Glossary On
Versions: 1 2 3 4 5 6 7 8 9 10 11 12 13 14 15 16 17 18 19 20 21 22 23 24
000
FTUS45 KGJT 052326
TAFDRO
TAF
KDRO 052326Z 0600/0624 25015G19KT P6SM FEW120 BKN150
     FM060100 30006KT P6SM VCTS SCT060CB BKN120
      TEMPO 0601/0603 VRB15G25KT -TSRA BKN060CB
     FM060600 34006KT P6SM SCT120 BKN200
     FM061200 VRB04KT P6SM SCT250
     FM061900 20005KT P6SM SCT120=

USA.gov is the U.S. government's official web portal to all federal, state and local government web resources and services.